Terminal Aerodrome Forecast
Issued by NWS Louisville, KY

Home | Current Version | Previous Version | Text Only | Print | Product List | Glossary On
Versions: 1 2 3 4 5 6 7 8 9 10 11 12 13 14 15 16 17 18 19
882
FTUS43 KLMK 120521
TAFSDF
TAF
KSDF 120521Z 1206/1312 VRB04KT P6SM SCT040 BKN100
     FM121200 VRB03KT 6SM -SN BR BKN040
     FM121600 28010G15KT P6SM BKN025
     FM122100 29012G19KT 6SM BR VCSH BKN025
     FM130100 30012G18KT P6SM BKN035=

USA.gov is the U.S. government's official web portal to all federal, state and local government web resources and services.